الصفحة الرئيسية
METAR-TAF:

METAR-TAF

مطار :

أوسكمان, كازاخستان

دائرة عرض: 50-02-10N, خط طول: 082-29-39E, ارتفاع: 286 متر

مراقبة الطقس الحالي

تاريخ ووقت الإصدار 1ساعة و 0 دقيقة قبل الساعة 21:00UTC
رياح هادئة
درجة الحرارة -29°درجة مئوية
الرطوبة 75%
ضغط 1039 hPa
ضباب مجمِّد

METAR: UASK 182100Z 00000MPS M0050 R12/M0050 FZFG VV001 M29/M32 Q1039 R12/850150 NOSIG RMK QBB040 QFE753/1004

زمن: 04:00 (22:00 UTC)

توقعات

تاريخ ووقت الإصدار 1ساعة و 54 دقيقة قبل الساعة 20:06UTC
التوقعات صالحة من18 الساعة 21 UTC إلى 19 الساعة 06 UTC
ريح 4 عقدةمن اتجاهات متغيرة
الرؤية: 0200 متر
على ارتفاع 100 قدم
ضباب مجمِّد
مؤقت
من 18 الساعة 22 UTC إلى 19 الساعة 04 UTC
الرؤية: 0800 متر
على ارتفاع 300 قدم
من 19 الساعة 0400 UTC
ريح 4 عقدةمن اتجاهات متغيرة
الرؤية: 1100 متر
غيوم مفككة على ارتفاع 300 قدم
غشاء
مؤقت
من 19 الساعة 04 UTC إلى 19 الساعة 06 UTC
الرؤية: 0200 متر
على ارتفاع 100 قدم
ضباب مجمِّد

TAF: UASK 182006Z 1821/1906 VRB02MPS 0200 FZFG VV001 TEMPO 1822/1904 0800 VV003 FM190400 VRB02MPS 1100 BR BKN003 TEMPO 1904/1906 0200 FZFG VV001

أرصاد الطقس والتوقعات من أكثر من 4000 مطار (تقارير الطقس للمطار METAR والتنبؤ بالطقس بالمطارTAF).

المحطات المتاحة هي النقط الصفراء والحمراء على الخريطة.

حرك المؤشر فوق النقطة لمعرفة اسم المحطة.

ثم انقر لمعرفة أرصاد وتوقعات الطقس.

لتغيير الخارطة: اضغط على الأزرار الخضراء مع رمز الصليب الأسود للتكبير. على الزر الأخضر مع شرطة للتصغير، أو على الأسهم الخضراء للخرائط المجاورة.


METAR-TAF: